createdAt,value
2022-12-01T00:02:45.224Z,99.56
2022-12-01T00:06:46.997Z,99.18
2022-12-01T00:10:49.288Z,99.65
2022-12-01T00:14:55.136Z,99.43
2022-12-01T00:18:58.903Z,99.88
2022-12-01T00:23:01.718Z,99.49
2022-12-01T00:27:03.579Z,99.71
2022-12-01T00:31:12.348Z,100.00
2022-12-01T00:35:15.029Z,100.00
2022-12-01T00:39:16.873Z,100.00
2022-12-01T00:43:18.546Z,100.00
2022-12-01T00:47:20.387Z,100.00
2022-12-01T00:51:22.033Z,100.00
2022-12-01T00:55:23.666Z,100.00
2022-12-01T00:59:25.435Z,100.00
2022-12-01T01:03:28.116Z,99.75
2022-12-01T01:07:30.195Z,100.00
2022-12-01T01:11:31.923Z,99.95
2022-12-01T01:15:33.856Z,100.00
2022-12-01T01:19:35.600Z,100.00
2022-12-01T01:23:37.643Z,100.00
2022-12-01T01:27:39.335Z,100.00
2022-12-01T01:31:41.147Z,100.00
2022-12-01T01:35:42.806Z,100.00
2022-12-01T01:39:44.500Z,100.00
2022-12-01T01:43:55.966Z,100.00
2022-12-01T01:48:00.528Z,100.00
2022-12-01T01:52:04.676Z,100.00
2022-12-01T01:56:08.899Z,100.00
2022-12-01T02:00:16.067Z,100.00
2022-12-01T02:04:20.492Z,100.00
2022-12-01T02:08:22.356Z,100.00
2022-12-01T02:13:01.157Z,100.00
2022-12-01T02:17:44.113Z,100.00
2022-12-01T02:22:18.460Z,100.00
2022-12-01T02:26:48.040Z,100.00
2022-12-01T02:31:04.590Z,100.00
2022-12-01T02:35:15.528Z,100.00
2022-12-01T02:39:32.283Z,100.00
2022-12-01T02:44:02.039Z,100.00
2022-12-01T02:48:09.209Z,100.00
2022-12-01T02:52:11.619Z,100.00
2022-12-01T02:56:16.174Z,100.00
2022-12-01T03:00:18.500Z,100.00
2022-12-01T03:04:49.352Z,100.00
2022-12-01T03:09:06.486Z,100.00
2022-12-01T03:13:14.248Z,100.00
2022-12-01T03:17:20.785Z,100.00
2022-12-01T03:21:31.305Z,100.00
2022-12-01T03:25:33.056Z,100.00
2022-12-01T03:29:41.364Z,100.00
2022-12-01T03:33:48.801Z,100.00
2022-12-01T03:37:59.297Z,100.00
2022-12-01T03:42:08.952Z,100.00
2022-12-01T03:46:33.186Z,100.00
2022-12-01T03:50:59.740Z,100.00
2022-12-01T03:55:21.028Z,100.00
2022-12-01T03:59:24.926Z,100.00
2022-12-01T04:03:26.894Z,100.00
2022-12-01T04:07:28.601Z,100.00
2022-12-01T04:11:48.938Z,100.00
2022-12-01T04:15:52.074Z,100.00
2022-12-01T04:19:53.823Z,100.00
2022-12-01T04:24:01.682Z,100.00
2022-12-01T04:28:03.433Z,100.00
2022-12-01T04:32:05.331Z,100.00
2022-12-01T04:36:07.401Z,100.00
2022-12-01T04:40:09.963Z,100.00
2022-12-01T04:44:11.860Z,100.00
2022-12-01T04:48:13.593Z,100.00
2022-12-01T04:52:15.472Z,100.00
2022-12-01T04:56:17.509Z,100.00
2022-12-01T05:00:19.341Z,100.00
2022-12-01T05:04:21.207Z,100.00
2022-12-01T05:08:22.885Z,100.00
2022-12-01T05:12:24.857Z,100.00
2022-12-01T05:16:29.239Z,100.00
2022-12-01T05:20:49.758Z,100.00
2022-12-01T05:24:51.536Z,100.00
2022-12-01T05:28:53.213Z,100.00
2022-12-01T05:32:55.101Z,100.00
2022-12-01T05:36:56.849Z,100.00
2022-12-01T05:40:58.575Z,100.00
2022-12-01T05:45:00.257Z,100.00
2022-12-01T05:49:01.959Z,100.00
2022-12-01T05:53:03.613Z,100.00
2022-12-01T05:57:05.307Z,100.00
2022-12-01T06:01:07.387Z,100.00
2022-12-01T06:05:09.937Z,100.00
2022-12-01T06:09:11.645Z,100.00
2022-12-01T06:13:13.674Z,100.00
2022-12-01T06:17:15.396Z,100.00
2022-12-01T06:21:17.090Z,100.00
2022-12-01T06:25:18.898Z,100.00
2022-12-01T06:29:20.643Z,100.00
2022-12-01T06:33:22.507Z,100.00
2022-12-01T06:37:24.260Z,100.00
2022-12-01T06:41:25.961Z,100.00
2022-12-01T06:45:27.785Z,100.00
2022-12-01T06:49:29.567Z,100.00
2022-12-01T06:53:31.372Z,100.00
2022-12-01T06:57:33.106Z,100.00
2022-12-01T07:01:34.899Z,100.00
2022-12-01T07:05:37.059Z,100.00
2022-12-01T07:09:39.468Z,100.00
2022-12-01T07:13:42.631Z,100.00
2022-12-01T07:17:44.298Z,100.00
2022-12-01T07:21:46.052Z,100.00
2022-12-01T07:25:47.741Z,100.00
2022-12-01T07:29:49.718Z,100.00
2022-12-01T07:33:52.497Z,100.00
2022-12-01T07:37:56.022Z,100.00
2022-12-01T07:41:57.701Z,100.00
2022-12-01T07:46:22.230Z,100.00
2022-12-01T07:50:25.131Z,100.00
2022-12-01T07:54:26.985Z,100.00
2022-12-01T07:58:30.064Z,100.00
2022-12-01T08:02:31.830Z,100.00
2022-12-01T08:06:33.707Z,100.00
2022-12-01T08:10:36.240Z,100.00
2022-12-01T08:14:37.997Z,100.00
2022-12-01T08:18:41.214Z,100.00
2022-12-01T08:22:42.969Z,100.00
2022-12-01T08:26:44.676Z,100.00
2022-12-01T08:30:47.341Z,100.00
2022-12-01T08:34:53.378Z,100.00
2022-12-01T08:38:56.063Z,100.00
2022-12-01T08:42:57.900Z,100.00
2022-12-01T08:46:59.682Z,100.00
2022-12-01T08:51:03.776Z,100.00
2022-12-01T08:55:06.648Z,100.00
2022-12-01T08:59:09.035Z,100.00
2022-12-01T09:03:10.748Z,100.00
2022-12-01T09:07:15.127Z,100.00
2022-12-01T09:11:18.669Z,100.00
2022-12-01T09:15:20.332Z,100.00
2022-12-01T09:19:25.070Z,100.00
2022-12-01T09:23:27.130Z,100.00
2022-12-01T09:27:28.789Z,100.00
2022-12-01T09:31:30.852Z,100.00
2022-12-01T09:35:34.134Z,100.00
2022-12-01T09:39:35.831Z,100.00
2022-12-01T09:43:45.813Z,100.00
2022-12-01T09:47:47.847Z,100.00
2022-12-01T09:51:52.443Z,100.00
2022-12-01T09:55:59.270Z,100.00
2022-12-01T10:00:16.516Z,100.00
2022-12-01T10:04:29.602Z,100.00
2022-12-01T10:08:36.625Z,100.00
2022-12-01T10:12:38.452Z,100.00
2022-12-01T10:16:51.400Z,100.00
2022-12-01T10:21:23.431Z,100.00
2022-12-01T10:25:38.670Z,100.00
2022-12-01T10:30:00.671Z,100.00
2022-12-01T10:34:08.104Z,100.00
2022-12-01T10:38:22.005Z,100.00
2022-12-01T10:42:37.848Z,100.00
2022-12-01T10:46:55.736Z,100.00
2022-12-01T10:51:15.609Z,100.00
2022-12-01T10:55:23.420Z,100.00
2022-12-01T10:59:48.628Z,100.00
2022-12-01T11:04:27.291Z,99.80
2022-12-01T11:08:39.368Z,100.00
2022-12-01T11:12:43.346Z,99.40
2022-12-01T11:16:47.452Z,99.09
2022-12-01T11:21:14.198Z,99.10
2022-12-01T11:25:21.796Z,98.96
2022-12-01T11:29:31.991Z,98.35
2022-12-01T11:33:44.823Z,97.68
2022-12-01T11:38:27.717Z,97.16
2022-12-01T11:42:25.752Z,97.12
2022-12-01T11:46:50.154Z,97.40
2022-12-01T11:51:08.157Z,96.43
2022-12-01T11:55:12.686Z,96.61
2022-12-01T11:59:25.937Z,95.98
2022-12-01T12:03:44.808Z,95.20
2022-12-01T12:08:10.666Z,94.96
2022-12-01T12:12:29.359Z,95.09
2022-12-01T12:17:08.844Z,95.02
2022-12-01T12:21:12.512Z,95.16
2022-12-01T12:25:47.986Z,94.74
2022-12-01T12:30:00.883Z,94.18
2022-12-01T12:34:13.837Z,94.10
2022-12-01T12:38:24.717Z,93.97
2022-12-01T12:42:43.642Z,93.88
2022-12-01T12:46:52.966Z,93.57
2022-12-01T12:51:09.586Z,93.87
2022-12-01T12:55:18.886Z,93.40
2022-12-01T12:59:26.387Z,93.23
2022-12-01T13:03:59.765Z,92.68
2022-12-01T13:08:06.948Z,92.40
2022-12-01T13:12:15.888Z,92.61
2022-12-01T13:16:22.593Z,91.32
2022-12-01T13:20:29.943Z,91.05
2022-12-01T13:24:31.687Z,90.36
2022-12-01T13:28:55.295Z,90.18
2022-12-01T13:33:03.984Z,90.00
2022-12-01T13:37:06.216Z,89.81
2022-12-01T13:41:13.809Z,90.12
2022-12-01T13:45:19.253Z,89.22
2022-12-01T13:49:51.624Z,88.81
2022-12-01T13:53:53.529Z,88.62
2022-12-01T13:57:58.350Z,88.28
2022-12-01T14:02:20.129Z,88.16
2022-12-01T14:06:24.700Z,88.55
2022-12-01T14:10:30.600Z,88.87
2022-12-01T14:14:39.070Z,88.32
2022-12-01T14:18:44.388Z,88.27
2022-12-01T14:22:50.440Z,88.31
2022-12-01T14:26:52.832Z,87.90
2022-12-01T14:30:54.557Z,87.91
2022-12-01T14:35:01.497Z,87.73
2022-12-01T14:39:19.944Z,87.27
2022-12-01T14:43:40.847Z,87.31
2022-12-01T14:47:49.494Z,87.96
2022-12-01T14:51:59.113Z,87.20
2022-12-01T14:56:18.132Z,87.59
2022-12-01T15:00:25.125Z,87.41
2022-12-01T15:04:27.032Z,87.10
2022-12-01T15:12:54.100Z,87.28
2022-12-01T15:16:56.381Z,87.20
2022-12-01T15:21:10.229Z,87.24
2022-12-01T15:25:15.304Z,87.19
2022-12-01T15:29:23.825Z,87.19
2022-12-01T15:33:36.599Z,87.53
2022-12-01T15:37:44.039Z,87.42
2022-12-01T15:41:48.367Z,87.49
2022-12-01T15:45:59.318Z,87.43
2022-12-01T15:50:01.055Z,87.74
2022-12-01T15:54:03.733Z,87.61
2022-12-01T15:58:09.989Z,87.57
2022-12-01T16:02:20.571Z,87.65
2022-12-01T16:06:30.019Z,87.78
2022-12-01T16:10:35.986Z,88.01
2022-12-01T16:14:50.314Z,87.79
2022-12-01T16:18:55.696Z,87.72
2022-12-01T16:23:03.272Z,87.64
2022-12-01T16:27:16.882Z,88.14
2022-12-01T16:31:20.057Z,88.23
2022-12-01T16:35:21.748Z,88.35
2022-12-01T16:39:23.474Z,88.37
2022-12-01T16:43:27.717Z,87.95
2022-12-01T16:47:32.278Z,88.49
2022-12-01T16:51:54.856Z,88.48
2022-12-01T16:56:00.487Z,87.98
2022-12-01T17:00:02.440Z,87.57
2022-12-01T17:04:07.569Z,87.42
2022-12-01T17:08:09.721Z,87.30
2022-12-01T17:12:11.551Z,87.48
2022-12-01T17:16:18.132Z,87.79
2022-12-01T17:20:20.386Z,87.38
2022-12-01T17:24:22.101Z,87.54
2022-12-01T17:28:23.819Z,87.91
2022-12-01T17:32:26.432Z,87.86
2022-12-01T17:36:28.093Z,87.75
2022-12-01T17:40:29.965Z,87.83
2022-12-01T17:44:31.688Z,88.06
2022-12-01T17:48:42.006Z,88.62
2022-12-01T17:52:43.721Z,88.38
2022-12-01T17:56:45.598Z,88.30
2022-12-01T18:00:50.602Z,88.68
2022-12-01T18:04:52.573Z,88.67
2022-12-01T18:08:55.016Z,88.84
2022-12-01T18:12:56.799Z,88.84
2022-12-01T18:16:58.520Z,89.05
2022-12-01T18:21:05.650Z,89.30
2022-12-01T18:25:07.706Z,89.44
2022-12-01T18:29:18.791Z,89.45
2022-12-01T18:33:21.049Z,89.44
2022-12-01T18:37:22.913Z,89.64
2022-12-01T18:41:25.378Z,89.77
2022-12-01T18:45:27.048Z,90.24
2022-12-01T18:49:28.738Z,90.34
2022-12-01T18:53:30.885Z,90.05
2022-12-01T18:57:32.675Z,90.58
2022-12-01T19:01:40.188Z,90.53
2022-12-01T19:05:42.073Z,90.53
2022-12-01T19:09:43.793Z,90.33
2022-12-01T19:13:45.871Z,90.35
2022-12-01T19:17:47.644Z,90.69
2022-12-01T19:21:50.462Z,90.56
2022-12-01T19:25:52.233Z,90.42
2022-12-01T19:29:54.849Z,90.64
2022-12-01T19:33:56.831Z,90.47
2022-12-01T19:37:59.733Z,90.65
2022-12-01T19:42:01.408Z,91.00
2022-12-01T19:46:11.927Z,90.90
2022-12-01T19:50:13.757Z,91.13
2022-12-01T19:54:20.216Z,90.92
2022-12-01T19:58:22.238Z,91.45
2022-12-01T20:02:28.919Z,91.27
2022-12-01T20:06:33.525Z,90.93
2022-12-01T20:10:35.161Z,91.19
2022-12-01T20:14:36.937Z,90.99
2022-12-01T20:18:39.437Z,90.99
2022-12-01T20:22:41.181Z,91.27
2022-12-01T20:26:47.113Z,91.10
2022-12-01T20:30:48.747Z,90.90
2022-12-01T20:34:50.881Z,90.88
2022-12-01T20:38:52.803Z,90.99
2022-12-01T20:42:54.522Z,91.32
2022-12-01T20:46:56.988Z,90.98
2022-12-01T20:51:04.209Z,91.14
2022-12-01T20:55:06.817Z,91.36
2022-12-01T20:59:08.592Z,91.72
2022-12-01T21:03:11.280Z,91.84
2022-12-01T21:07:12.951Z,91.62
2022-12-01T21:11:44.476Z,91.65
2022-12-01T21:15:54.690Z,91.93
2022-12-01T21:20:01.819Z,91.82
2022-12-01T21:24:13.729Z,92.12
2022-12-01T21:28:21.272Z,91.81
2022-12-01T21:32:33.474Z,92.22
2022-12-01T21:36:35.221Z,92.60
2022-12-01T21:40:36.937Z,92.51
2022-12-01T21:44:39.504Z,92.87
2022-12-01T21:48:42.341Z,92.61
2022-12-01T21:52:46.234Z,92.88
2022-12-01T21:56:58.416Z,92.62
2022-12-01T22:01:00.883Z,92.80
2022-12-01T22:05:02.657Z,92.82
2022-12-01T22:09:22.444Z,92.82
2022-12-01T22:13:36.158Z,92.78
2022-12-01T22:17:37.988Z,92.75
2022-12-01T22:21:44.163Z,92.73
2022-12-01T22:25:47.566Z,93.23
2022-12-01T22:29:51.826Z,93.16
2022-12-01T22:34:02.871Z,92.99
2022-12-01T22:38:11.009Z,92.78
2022-12-01T22:42:27.884Z,92.87
2022-12-01T22:46:34.904Z,93.16
2022-12-01T22:50:37.365Z,92.94
2022-12-01T22:54:43.485Z,93.42
2022-12-01T22:58:45.205Z,93.35
2022-12-01T23:02:52.450Z,93.10
2022-12-01T23:07:00.279Z,93.17
2022-12-01T23:11:01.961Z,93.42
2022-12-01T23:15:39.486Z,93.64
2022-12-01T23:19:41.250Z,94.11
2022-12-01T23:23:43.008Z,93.56
2022-12-01T23:27:46.953Z,93.84
2022-12-01T23:31:50.452Z,94.23
2022-12-01T23:36:01.014Z,94.21
2022-12-01T23:40:15.149Z,93.86
2022-12-01T23:44:34.965Z,94.32
2022-12-01T23:48:49.570Z,94.26
2022-12-01T23:52:51.932Z,94.20
2022-12-01T23:56:57.676Z,94.26
